createdAt,value
2022-12-23T00:01:34.060Z,22.25
2022-12-23T00:04:01.507Z,23.45
2022-12-23T00:06:28.668Z,29.58
2022-12-23T00:08:58.165Z,27.88
2022-12-23T00:11:26.095Z,23.50
2022-12-23T00:14:18.193Z,24.42
2022-12-23T00:16:47.934Z,31.33
2022-12-23T00:19:15.057Z,27.75
2022-12-23T00:21:42.314Z,25.63
2022-12-23T00:24:09.428Z,25.00
2022-12-23T00:26:36.506Z,29.65
2022-12-23T00:29:03.674Z,30.00
2022-12-23T00:31:30.962Z,28.20
2022-12-23T00:33:58.234Z,21.77
2022-12-23T00:36:27.609Z,28.58
2022-12-23T00:39:14.240Z,25.02
2022-12-23T00:42:00.251Z,28.25
2022-12-23T00:44:27.539Z,27.08
2022-12-23T00:46:54.975Z,29.38
2022-12-23T00:49:41.137Z,31.10
2022-12-23T00:52:09.377Z,23.60
2022-12-23T00:54:36.552Z,26.25
2022-12-23T00:57:03.683Z,27.70
2022-12-23T00:59:30.843Z,26.85
2022-12-23T01:02:16.793Z,24.38
2022-12-23T01:05:02.611Z,28.75
2022-12-23T01:07:29.684Z,23.08
2022-12-23T01:09:56.815Z,29.30
2022-12-23T01:12:24.192Z,26.10
2022-12-23T01:14:51.313Z,29.67
2022-12-23T01:17:18.948Z,16.90
2022-12-23T01:19:46.281Z,23.83
2022-12-23T01:22:13.435Z,25.15
2022-12-23T01:24:40.751Z,29.10
2022-12-23T01:27:07.897Z,26.98
2022-12-23T01:29:35.063Z,23.73
2022-12-23T01:32:02.469Z,22.63
2022-12-23T01:34:36.038Z,21.23
2022-12-23T01:37:03.952Z,23.92
2022-12-23T01:39:31.074Z,29.75
2022-12-23T01:42:16.795Z,28.30
2022-12-23T01:45:03.064Z,21.10
2022-12-23T01:47:30.348Z,24.63
2022-12-23T01:50:07.708Z,21.92
2022-12-23T01:52:36.802Z,23.00
2022-12-23T01:55:04.205Z,22.63
2022-12-23T01:57:31.372Z,19.27
2022-12-23T02:00:17.136Z,21.58
2022-12-23T02:03:03.537Z,28.83
2022-12-23T02:05:30.724Z,20.10
2022-12-23T02:08:16.792Z,23.65
2022-12-23T02:10:58.968Z,26.50
2022-12-23T02:13:32.220Z,21.40
2022-12-23T02:16:19.471Z,18.58
2022-12-23T02:18:57.370Z,21.08
2022-12-23T02:21:39.541Z,23.70
2022-12-23T02:24:15.812Z,24.75
2022-12-23T02:26:51.702Z,19.58
2022-12-23T02:29:18.778Z,25.13
2022-12-23T02:32:00.770Z,24.50
2022-12-23T02:34:27.841Z,23.50
2022-12-23T02:37:00.159Z,24.80
2022-12-23T02:39:45.902Z,23.52
2022-12-23T02:42:23.557Z,21.20
2022-12-23T02:44:56.791Z,18.45
2022-12-23T02:47:26.115Z,14.45
2022-12-23T02:49:55.058Z,17.25
2022-12-23T02:52:24.087Z,13.70
2022-12-23T02:54:53.352Z,15.82
2022-12-23T02:57:22.255Z,11.63
2022-12-23T02:59:51.245Z,12.88
2022-12-23T03:02:18.841Z,11.32
2022-12-23T03:04:49.105Z,12.13
2022-12-23T03:07:18.930Z,13.93
2022-12-23T03:10:05.001Z,14.40
2022-12-23T03:12:51.778Z,15.57
2022-12-23T03:15:37.947Z,13.18
2022-12-23T03:18:07.820Z,16.05
2022-12-23T03:20:53.370Z,18.08
2022-12-23T03:23:20.416Z,14.73
2022-12-23T03:26:26.193Z,15.25
2022-12-23T03:29:09.583Z,14.05
2022-12-23T03:31:38.504Z,12.32
2022-12-23T03:34:13.285Z,17.15
2022-12-23T03:36:46.653Z,15.70
2022-12-23T03:39:17.080Z,15.10
2022-12-23T03:41:48.065Z,15.18
2022-12-23T03:44:20.531Z,16.00
2022-12-23T03:46:51.135Z,16.30
2022-12-23T03:49:38.247Z,15.85
2022-12-23T03:52:20.578Z,16.00
2022-12-23T03:54:53.677Z,14.57
2022-12-23T03:57:22.115Z,12.32
2022-12-23T03:59:51.477Z,12.65
2022-12-23T04:02:24.595Z,14.85
2022-12-23T04:04:52.094Z,14.20
2022-12-23T04:07:22.226Z,12.73
2022-12-23T04:09:50.380Z,12.85
2022-12-23T04:12:18.605Z,9.93
2022-12-23T04:14:49.522Z,16.15
2022-12-23T04:17:17.195Z,11.45
2022-12-23T04:19:48.172Z,15.07
2022-12-23T04:22:16.025Z,13.88
2022-12-23T04:24:43.615Z,14.00
2022-12-23T04:27:13.376Z,14.23
2022-12-23T04:29:40.513Z,12.70
2022-12-23T04:32:08.526Z,14.52
2022-12-23T04:34:35.784Z,13.23
2022-12-23T04:37:03.015Z,13.93
2022-12-23T04:39:30.142Z,14.82
2022-12-23T04:41:57.316Z,13.07
2022-12-23T04:44:24.504Z,14.05
2022-12-23T04:46:51.925Z,18.15
2022-12-23T04:49:19.332Z,16.23
2022-12-23T04:51:46.428Z,15.27
2022-12-23T04:54:13.609Z,18.88
2022-12-23T04:56:40.875Z,15.75
2022-12-23T04:59:08.133Z,15.65
2022-12-23T05:01:35.357Z,12.82
2022-12-23T05:04:02.555Z,14.65
2022-12-23T05:06:29.702Z,17.83
2022-12-23T05:08:57.228Z,17.30
2022-12-23T05:11:24.327Z,17.30
2022-12-23T05:13:51.427Z,20.15
2022-12-23T05:16:18.622Z,23.20
2022-12-23T05:18:45.969Z,16.23
2022-12-23T05:21:13.719Z,15.98
2022-12-23T05:23:40.866Z,22.63
2022-12-23T05:26:08.088Z,22.88
2022-12-23T05:28:35.491Z,18.55
2022-12-23T05:31:03.729Z,21.60
2022-12-23T05:33:31.409Z,23.35
2022-12-23T05:35:58.693Z,20.30
2022-12-23T05:38:25.885Z,19.08
2022-12-23T05:40:53.053Z,20.38
2022-12-23T05:43:20.239Z,16.90
2022-12-23T05:45:47.856Z,20.35
2022-12-23T05:48:15.071Z,20.15
2022-12-23T05:50:42.282Z,16.63
2022-12-23T05:53:09.612Z,22.08
2022-12-23T05:55:36.880Z,21.30
2022-12-23T05:58:04.369Z,19.70
2022-12-23T06:00:31.507Z,20.10
2022-12-23T06:02:58.748Z,22.40
2022-12-23T06:05:26.008Z,22.25
2022-12-23T06:07:53.108Z,24.02
2022-12-23T06:10:20.345Z,25.35
2022-12-23T06:12:47.525Z,23.23
2022-12-23T06:15:15.594Z,25.13
2022-12-23T06:17:42.865Z,28.52
2022-12-23T06:20:17.960Z,26.45
2022-12-23T06:22:47.443Z,26.98
2022-12-23T06:25:14.661Z,24.98
2022-12-23T06:27:41.765Z,24.52
2022-12-23T06:30:09.232Z,28.65
2022-12-23T06:32:38.845Z,27.55
2022-12-23T06:35:06.928Z,22.98
2022-12-23T06:37:34.061Z,23.90
2022-12-23T06:40:01.220Z,23.38
2022-12-23T06:42:28.428Z,19.45
2022-12-23T06:44:55.534Z,23.65
2022-12-23T06:47:22.636Z,26.05
2022-12-23T06:49:49.747Z,26.67
2022-12-23T06:52:17.120Z,28.98
2022-12-23T06:54:44.375Z,25.33
2022-12-23T06:57:11.454Z,27.92
2022-12-23T06:59:38.618Z,23.75
2022-12-23T07:02:06.593Z,32.20
2022-12-23T07:04:33.874Z,30.35
2022-12-23T07:07:01.149Z,28.55
2022-12-23T07:09:28.343Z,25.75
2022-12-23T07:11:55.430Z,25.50
2022-12-23T07:14:22.546Z,26.40
2022-12-23T07:16:49.997Z,29.67
2022-12-23T07:19:17.681Z,25.95
2022-12-23T07:21:44.826Z,26.65
2022-12-23T07:24:11.930Z,27.27
2022-12-23T07:26:39.089Z,26.35
2022-12-23T07:29:06.289Z,24.95
2022-12-23T07:31:33.735Z,26.23
2022-12-23T07:34:00.941Z,27.13
2022-12-23T07:36:28.047Z,26.65
2022-12-23T07:38:55.220Z,28.05
2022-12-23T07:41:22.371Z,29.80
2022-12-23T07:43:49.632Z,24.80
2022-12-23T07:46:16.762Z,27.40
2022-12-23T07:48:43.968Z,27.20
2022-12-23T07:51:11.313Z,30.02
2022-12-23T07:53:38.629Z,29.35
2022-12-23T07:56:06.209Z,27.20
2022-12-23T07:58:33.368Z,30.63
2022-12-23T08:01:01.787Z,34.17
2022-12-23T08:03:29.200Z,33.60
2022-12-23T08:06:06.618Z,29.48
2022-12-23T08:08:34.011Z,69.65
2022-12-23T08:11:02.019Z,28.60
2022-12-23T08:13:29.342Z,29.40
2022-12-23T08:15:57.580Z,31.42
2022-12-23T08:18:25.114Z,34.13
2022-12-23T08:20:59.372Z,28.13
2022-12-23T08:23:27.057Z,32.42
2022-12-23T08:26:06.576Z,29.13
2022-12-23T08:28:34.160Z,26.83
2022-12-23T08:31:05.797Z,24.23
2022-12-23T08:33:33.796Z,26.90
2022-12-23T08:36:00.988Z,27.33
2022-12-23T08:38:28.123Z,26.27
2022-12-23T08:40:55.276Z,26.33
2022-12-23T08:43:22.361Z,24.35
2022-12-23T08:45:49.775Z,25.33
2022-12-23T08:48:17.084Z,25.10
2022-12-23T08:50:45.919Z,27.60
2022-12-23T08:55:44.571Z,28.95
2022-12-23T08:58:12.919Z,27.70
2022-12-23T09:00:40.170Z,33.42
2022-12-23T09:03:07.877Z,26.20
2022-12-23T09:05:39.508Z,29.77
2022-12-23T09:08:06.788Z,30.50
2022-12-23T09:10:33.885Z,34.42
2022-12-23T09:13:01.078Z,34.55
2022-12-23T09:15:28.324Z,35.40
2022-12-23T09:17:55.826Z,38.80
2022-12-23T09:20:22.959Z,34.90
2022-12-23T09:22:50.092Z,47.17
2022-12-23T09:25:17.286Z,37.45
2022-12-23T09:27:44.457Z,34.25
2022-12-23T09:30:11.957Z,39.00
2022-12-23T09:32:39.113Z,40.58
2022-12-23T09:35:06.494Z,35.25
2022-12-23T09:37:33.917Z,35.58
2022-12-23T09:40:01.097Z,41.13
2022-12-23T09:42:37.328Z,43.95
2022-12-23T09:45:13.108Z,37.20
2022-12-23T09:47:40.911Z,32.88
2022-12-23T09:50:31.472Z,29.45
2022-12-23T09:53:03.720Z,42.28
2022-12-23T09:55:49.852Z,33.50
2022-12-23T09:58:29.030Z,28.77
2022-12-23T10:01:07.702Z,26.73
2022-12-23T10:03:40.051Z,24.95
2022-12-23T10:06:28.277Z,23.63
2022-12-23T10:08:58.527Z,23.83
2022-12-23T10:11:27.527Z,29.67
2022-12-23T10:13:55.450Z,26.92
2022-12-23T10:16:24.761Z,27.88
2022-12-23T10:19:00.063Z,26.85
2022-12-23T10:21:31.297Z,30.30
2022-12-23T10:24:00.526Z,28.98
2022-12-23T10:26:39.742Z,25.08
2022-12-23T10:29:19.368Z,29.55
2022-12-23T10:32:05.782Z,28.48
2022-12-23T10:34:38.233Z,26.17
2022-12-23T10:37:29.087Z,30.48
2022-12-23T10:40:16.455Z,28.17
2022-12-23T10:42:51.826Z,30.55
2022-12-23T10:45:31.782Z,29.00
2022-12-23T10:48:17.493Z,31.08
2022-12-23T10:50:46.201Z,31.95
2022-12-23T10:55:40.475Z,33.75
2022-12-23T10:58:18.609Z,29.67
2022-12-23T11:00:49.118Z,30.40
2022-12-23T11:03:20.983Z,33.42
2022-12-23T11:05:51.311Z,34.33
2022-12-23T11:08:19.132Z,31.95
2022-12-23T11:11:25.089Z,32.90
2022-12-23T11:13:52.300Z,34.05
2022-12-23T11:16:22.898Z,33.67
2022-12-23T11:18:57.506Z,35.90
2022-12-23T11:21:24.842Z,39.83
2022-12-23T11:24:15.458Z,33.75
2022-12-23T11:26:43.116Z,42.50
2022-12-23T11:29:11.903Z,40.78
2022-12-23T11:36:33.828Z,37.72
2022-12-23T11:39:07.532Z,42.40
2022-12-23T11:41:37.250Z,38.28
2022-12-23T11:44:11.715Z,43.72
2022-12-23T11:46:38.942Z,40.20
2022-12-23T11:49:15.368Z,41.75
2022-12-23T11:51:43.255Z,43.90
2022-12-23T11:54:17.032Z,42.85
2022-12-23T11:56:45.040Z,46.28
2022-12-23T11:59:41.753Z,43.58
2022-12-23T12:02:31.993Z,39.15
2022-12-23T12:05:20.948Z,38.10
2022-12-23T12:07:49.229Z,42.35
2022-12-23T12:10:33.615Z,39.60
2022-12-23T12:13:03.327Z,43.22
2022-12-23T12:15:33.574Z,39.80
2022-12-23T12:18:01.594Z,39.15
2022-12-23T12:20:37.579Z,36.50
2022-12-23T12:23:12.321Z,38.72
2022-12-23T12:25:44.701Z,38.40
2022-12-23T12:28:18.137Z,38.55
2022-12-23T12:30:49.221Z,34.28
2022-12-23T12:33:16.367Z,35.95
2022-12-23T12:35:54.268Z,39.72
2022-12-23T12:38:25.680Z,34.60
2022-12-23T12:41:02.102Z,28.35
2022-12-23T12:43:32.705Z,37.63
2022-12-23T12:46:08.595Z,39.30
2022-12-23T12:48:41.967Z,31.40
2022-12-23T12:51:19.572Z,27.95
2022-12-23T12:53:54.320Z,28.55
2022-12-23T12:56:30.507Z,25.38
2022-12-23T12:58:57.862Z,32.40
2022-12-23T13:01:48.062Z,27.20
2022-12-23T13:04:33.482Z,26.88
2022-12-23T13:07:06.110Z,25.40
2022-12-23T13:09:51.836Z,27.27
2022-12-23T13:12:39.204Z,23.70
2022-12-23T13:15:30.119Z,22.17
2022-12-23T13:18:01.800Z,25.25
2022-12-23T13:20:38.522Z,22.65
2022-12-23T13:25:57.988Z,20.40
2022-12-23T13:28:36.998Z,24.15
2022-12-23T13:31:04.579Z,21.65
2022-12-23T13:33:31.753Z,22.25
2022-12-23T13:36:17.765Z,22.02
2022-12-23T13:38:51.011Z,23.92
2022-12-23T13:41:21.141Z,24.90
2022-12-23T13:43:54.181Z,21.98
2022-12-23T13:46:26.415Z,23.00
2022-12-23T13:49:08.890Z,19.02
2022-12-23T13:51:38.765Z,22.55
2022-12-23T13:54:30.574Z,21.42
2022-12-23T13:57:24.029Z,24.35
2022-12-23T14:00:17.199Z,22.15
2022-12-23T14:02:50.722Z,19.92
2022-12-23T14:05:38.785Z,18.60
2022-12-23T14:08:07.759Z,18.92
2022-12-23T14:10:35.579Z,16.40
2022-12-23T14:13:05.067Z,19.27
2022-12-23T14:15:32.304Z,18.00
2022-12-23T14:18:02.692Z,19.35
2022-12-23T14:20:51.991Z,18.88
2022-12-23T14:25:57.067Z,17.58
2022-12-23T14:28:42.785Z,18.00
2022-12-23T14:31:28.426Z,17.75
2022-12-23T14:34:02.753Z,16.05
2022-12-23T14:36:30.428Z,17.35
2022-12-23T14:39:23.702Z,17.70
2022-12-23T14:42:00.106Z,16.30
2022-12-23T14:44:36.542Z,18.52
2022-12-23T14:47:23.023Z,16.17
2022-12-23T14:49:50.147Z,19.25
2022-12-23T14:52:39.353Z,18.23
2022-12-23T14:55:40.830Z,16.63
2022-12-23T14:58:11.865Z,17.70
2022-12-23T15:00:50.623Z,17.77
2022-12-23T15:03:18.993Z,18.00
2022-12-23T15:05:46.750Z,17.25
2022-12-23T15:08:29.130Z,19.48
2022-12-23T15:10:57.584Z,16.58
2022-12-23T15:13:26.104Z,17.45
2022-12-23T15:16:00.706Z,14.77
2022-12-23T15:18:28.895Z,19.35
2022-12-23T15:21:14.181Z,21.75
2022-12-23T15:23:48.986Z,17.80
2022-12-23T15:26:16.149Z,17.27
2022-12-23T15:28:43.499Z,18.63
2022-12-23T15:31:24.663Z,20.88
2022-12-23T15:34:02.992Z,16.92
2022-12-23T15:36:35.631Z,17.05
2022-12-23T15:39:07.835Z,15.40
2022-12-23T15:41:42.487Z,23.58
2022-12-23T15:44:19.156Z,27.48
2022-12-23T15:46:46.482Z,22.45
2022-12-23T15:49:13.692Z,20.58
2022-12-23T15:52:06.500Z,22.70
2022-12-23T15:54:36.897Z,23.30
2022-12-23T15:57:05.310Z,27.02
2022-12-23T15:59:34.300Z,17.27
2022-12-23T16:02:58.479Z,29.88
2022-12-23T16:05:07.514Z,18.05
2022-12-23T16:07:43.903Z,33.20
2022-12-23T16:10:15.261Z,16.45
2022-12-23T16:12:42.820Z,16.55
2022-12-23T16:15:28.463Z,12.55
2022-12-23T16:18:15.677Z,19.95
2022-12-23T16:20:44.796Z,23.55
2022-12-23T16:23:12.827Z,17.42
2022-12-23T16:25:43.027Z,20.13
2022-12-23T16:28:21.568Z,19.17
2022-12-23T16:30:49.749Z,20.95
2022-12-23T16:33:20.034Z,26.98
2022-12-23T16:35:47.265Z,17.08
2022-12-23T16:38:21.804Z,18.67
2022-12-23T16:40:50.551Z,19.55
2022-12-23T16:43:18.775Z,23.05
2022-12-23T16:45:46.714Z,18.77
2022-12-23T16:48:19.982Z,79.85
2022-12-23T16:50:47.433Z,22.27
2022-12-23T16:53:15.742Z,19.58
2022-12-23T16:55:50.229Z,22.98
2022-12-23T16:58:20.040Z,25.27
2022-12-23T17:00:47.305Z,27.67
2022-12-23T17:03:17.211Z,21.83
2022-12-23T17:05:44.676Z,22.48
2022-12-23T17:08:11.911Z,19.77
2022-12-23T17:10:40.145Z,25.63
2022-12-23T17:13:07.363Z,27.60
2022-12-23T17:15:35.098Z,19.27
2022-12-23T17:18:02.279Z,17.60
2022-12-23T17:20:29.431Z,21.00
2022-12-23T17:22:58.219Z,18.17
2022-12-23T17:27:55.790Z,16.98
2022-12-23T17:30:24.851Z,17.88
2022-12-23T17:32:55.359Z,20.38
2022-12-23T17:35:22.656Z,21.55
2022-12-23T17:37:50.101Z,21.38
2022-12-23T17:40:17.924Z,23.65
2022-12-23T17:42:45.449Z,22.33
2022-12-23T17:45:26.879Z,22.27
2022-12-23T17:47:54.628Z,19.75
2022-12-23T17:50:22.119Z,27.42
2022-12-23T17:52:49.824Z,22.13
2022-12-23T17:55:24.667Z,23.77
2022-12-23T17:57:52.242Z,25.67
2022-12-23T18:00:29.892Z,21.75
2022-12-23T18:03:01.384Z,23.77
2022-12-23T18:05:30.143Z,26.05
2022-12-23T18:10:27.514Z,30.48
2022-12-23T18:12:56.242Z,23.10
2022-12-23T18:15:25.408Z,42.33
2022-12-23T18:17:53.463Z,27.40
2022-12-23T18:20:22.287Z,41.22
2022-12-23T18:25:18.850Z,38.65
2022-12-23T18:27:46.995Z,26.98
2022-12-23T18:30:15.227Z,24.80
2022-12-23T18:32:43.169Z,42.80
2022-12-23T18:35:30.426Z,40.20
2022-12-23T18:37:58.828Z,41.60
2022-12-23T18:40:32.413Z,43.03
2022-12-23T18:43:00.470Z,36.92
2022-12-23T18:45:30.604Z,43.88
2022-12-23T18:47:58.534Z,33.95
2022-12-23T18:50:26.026Z,43.13
2022-12-23T18:52:53.251Z,34.10
2022-12-23T18:55:21.032Z,42.03
2022-12-23T18:57:48.593Z,28.40
2022-12-23T19:00:18.093Z,32.50
2022-12-23T19:02:45.518Z,38.20
2022-12-23T19:05:20.771Z,33.60
2022-12-23T19:07:48.619Z,32.65
2022-12-23T19:10:21.714Z,44.50
2022-12-23T19:12:48.913Z,37.53
2022-12-23T19:15:16.501Z,36.17
2022-12-23T19:17:43.688Z,37.40
2022-12-23T19:20:13.007Z,38.15
2022-12-23T19:22:40.263Z,33.88
2022-12-23T19:25:08.029Z,39.15
2022-12-23T19:27:35.250Z,34.63
2022-12-23T19:30:03.884Z,33.42
2022-12-23T19:32:31.064Z,31.92
2022-12-23T19:34:58.171Z,31.50
2022-12-23T19:37:25.339Z,39.95
2022-12-23T19:39:52.807Z,36.13
2022-12-23T19:42:20.619Z,44.78
2022-12-23T19:44:48.015Z,31.83
2022-12-23T19:47:15.094Z,44.17
2022-12-23T19:49:42.340Z,33.00
2022-12-23T19:52:09.502Z,36.28
2022-12-23T19:54:36.604Z,35.95
2022-12-23T19:57:03.732Z,35.78
2022-12-23T19:59:30.968Z,29.15
2022-12-23T20:01:58.140Z,29.63
2022-12-23T20:04:25.435Z,34.50
2022-12-23T20:06:52.910Z,27.67
2022-12-23T20:09:20.465Z,30.08
2022-12-23T20:11:49.120Z,33.08
2022-12-23T20:14:17.882Z,20.42
2022-12-23T20:16:45.488Z,33.20
2022-12-23T20:19:12.747Z,29.70
2022-12-23T20:21:39.902Z,25.40
2022-12-23T20:24:07.468Z,21.35
2022-12-23T20:26:34.818Z,31.17
2022-12-23T20:29:02.218Z,15.57
2022-12-23T20:31:30.803Z,19.35
2022-12-23T20:33:59.629Z,18.60
2022-12-23T20:36:30.926Z,19.85
2022-12-23T20:38:58.300Z,14.02
2022-12-23T20:41:27.237Z,18.73
2022-12-23T20:44:32.586Z,16.73
2022-12-23T20:46:42.432Z,16.63
2022-12-23T20:49:09.795Z,27.00
2022-12-23T20:51:36.947Z,24.23
2022-12-23T20:54:04.187Z,19.80
2022-12-23T20:56:31.859Z,24.60
2022-12-23T20:59:00.580Z,16.65
2022-12-23T21:01:30.715Z,30.35
2022-12-23T21:03:59.479Z,25.35
2022-12-23T21:06:27.296Z,21.45
2022-12-23T21:08:55.820Z,21.77
2022-12-23T21:11:23.840Z,22.73
2022-12-23T21:13:51.510Z,26.95
2022-12-23T21:16:18.912Z,25.70
2022-12-23T21:18:50.590Z,25.40
2022-12-23T21:21:17.914Z,19.67
2022-12-23T21:23:45.404Z,33.28
2022-12-23T21:26:17.198Z,18.60
2022-12-23T21:28:46.250Z,24.50
2022-12-23T21:31:14.854Z,20.30
2022-12-23T21:33:43.569Z,17.77
2022-12-23T21:36:16.349Z,23.02
2022-12-23T21:38:47.270Z,23.27
2022-12-23T21:41:16.370Z,22.92
2022-12-23T21:43:43.885Z,22.50
2022-12-23T21:46:12.463Z,19.77
2022-12-23T21:48:39.731Z,23.33
2022-12-23T21:51:39.660Z,17.58
2022-12-23T21:54:08.161Z,20.58
2022-12-23T21:56:35.880Z,22.88
2022-12-23T21:59:04.661Z,21.15
2022-12-23T22:01:32.453Z,19.27
2022-12-23T22:03:59.864Z,25.13
2022-12-23T22:06:31.977Z,22.67
2022-12-23T22:08:59.553Z,24.17
2022-12-23T22:11:30.902Z,23.52
2022-12-23T22:13:58.745Z,26.55
2022-12-23T22:16:27.253Z,18.90
2022-12-23T22:18:55.064Z,20.95
2022-12-23T22:21:24.269Z,24.42
2022-12-23T22:23:52.241Z,23.50
2022-12-23T22:26:25.358Z,19.50
2022-12-23T22:28:54.153Z,18.42
2022-12-23T22:31:33.431Z,24.92
2022-12-23T22:34:00.980Z,18.02
2022-12-23T22:36:28.434Z,23.55
2022-12-23T22:38:57.198Z,19.88
2022-12-23T22:41:25.221Z,23.98
2022-12-23T22:43:52.354Z,15.27
2022-12-23T22:46:20.038Z,19.73
2022-12-23T22:48:47.429Z,22.90
2022-12-23T22:51:19.101Z,18.35
2022-12-23T22:53:46.424Z,15.88
2022-12-23T22:56:14.429Z,24.55
2022-12-23T22:58:41.765Z,17.35
2022-12-23T23:01:18.159Z,21.13
2022-12-23T23:03:45.558Z,20.38
2022-12-23T23:06:12.980Z,31.33
2022-12-23T23:08:42.215Z,22.85
2022-12-23T23:11:09.356Z,20.08
2022-12-23T23:13:36.528Z,30.00
2022-12-23T23:16:03.978Z,21.13
2022-12-23T23:18:31.320Z,21.17
2022-12-23T23:20:58.441Z,28.98
2022-12-23T23:23:25.580Z,24.27
2022-12-23T23:25:52.707Z,21.55
2022-12-23T23:28:19.923Z,21.70
2022-12-23T23:30:47.066Z,24.17
2022-12-23T23:33:14.222Z,23.58
2022-12-23T23:35:41.418Z,9.65
2022-12-23T23:38:08.836Z,20.75
2022-12-23T23:40:36.471Z,32.10
2022-12-23T23:43:03.663Z,27.98
2022-12-23T23:45:30.872Z,23.17
2022-12-23T23:47:58.197Z,28.05
2022-12-23T23:50:25.267Z,27.75
2022-12-23T23:52:52.595Z,18.58
2022-12-23T23:55:19.784Z,20.08
2022-12-23T23:57:46.930Z,32.33
